sensor_id;sensor_type;location;lat;lon;timestamp;P1;durP1;ratioP1;P2;durP2;ratioP2
16015;SDS011;8112;53.592;10.184;2023-04-29T00:04:48;12.10;;;9.60;;
16015;SDS011;8112;53.592;10.184;2023-04-29T00:09:51;10.53;;;9.17;;
16015;SDS011;8112;53.592;10.184;2023-04-29T00:14:53;13.57;;;10.03;;
16015;SDS011;8112;53.592;10.184;2023-04-29T00:19:55;13.50;;;10.50;;
16015;SDS011;8112;53.592;10.184;2023-04-29T00:24:58;13.63;;;10.00;;
16015;SDS011;8112;53.592;10.184;2023-04-29T00:30:00;13.27;;;10.33;;
16015;SDS011;8112;53.592;10.184;2023-04-29T00:35:03;15.90;;;10.67;;
16015;SDS011;8112;53.592;10.184;2023-04-29T00:40:07;12.93;;;10.13;;
16015;SDS011;8112;53.592;10.184;2023-04-29T00:45:10;11.87;;;10.23;;
16015;SDS011;8112;53.592;10.184;2023-04-29T00:50:12;12.57;;;10.13;;
16015;SDS011;8112;53.592;10.184;2023-04-29T00:55:15;16.80;;;11.77;;
16015;SDS011;8112;53.592;10.184;2023-04-29T01:00:17;14.53;;;11.17;;
16015;SDS011;8112;53.592;10.184;2023-04-29T01:05:19;14.33;;;12.07;;
16015;SDS011;8112;53.592;10.184;2023-04-29T01:10:26;15.93;;;11.93;;
16015;SDS011;8112;53.592;10.184;2023-04-29T01:15:30;15.47;;;12.67;;
16015;SDS011;8112;53.592;10.184;2023-04-29T01:20:35;16.60;;;12.80;;
16015;SDS011;8112;53.592;10.184;2023-04-29T01:25:39;17.30;;;13.03;;
16015;SDS011;8112;53.592;10.184;2023-04-29T01:30:49;16.27;;;12.80;;
16015;SDS011;8112;53.592;10.184;2023-04-29T01:36:00;19.80;;;13.73;;
16015;SDS011;8112;53.592;10.184;2023-04-29T01:41:13;18.30;;;14.13;;
16015;SDS011;8112;53.592;10.184;2023-04-29T01:46:22;15.23;;;12.83;;
16015;SDS011;8112;53.592;10.184;2023-04-29T01:51:28;17.60;;;13.90;;
16015;SDS011;8112;53.592;10.184;2023-04-29T01:56:32;19.37;;;15.00;;
16015;SDS011;8112;53.592;10.184;2023-04-29T02:01:42;18.27;;;14.57;;
16015;SDS011;8112;53.592;10.184;2023-04-29T02:06:45;21.50;;;14.73;;
16015;SDS011;8112;53.592;10.184;2023-04-29T02:11:48;18.80;;;14.20;;
16015;SDS011;8112;53.592;10.184;2023-04-29T02:16:50;17.67;;;14.97;;
16015;SDS011;8112;53.592;10.184;2023-04-29T02:21:52;19.47;;;14.20;;
16015;SDS011;8112;53.592;10.184;2023-04-29T02:26:55;15.63;;;12.90;;
16015;SDS011;8112;53.592;10.184;2023-04-29T02:31:56;16.77;;;13.20;;
16015;SDS011;8112;53.592;10.184;2023-04-29T02:36:58;15.67;;;12.23;;
16015;SDS011;8112;53.592;10.184;2023-04-29T02:42:01;16.50;;;12.63;;
16015;SDS011;8112;53.592;10.184;2023-04-29T02:47:03;17.80;;;13.07;;
16015;SDS011;8112;53.592;10.184;2023-04-29T02:52:05;16.33;;;13.60;;
16015;SDS011;8112;53.592;10.184;2023-04-29T02:57:09;19.67;;;14.27;;
16015;SDS011;8112;53.592;10.184;2023-04-29T03:02:11;19.67;;;15.37;;
16015;SDS011;8112;53.592;10.184;2023-04-29T03:07:14;17.67;;;13.83;;
16015;SDS011;8112;53.592;10.184;2023-04-29T03:12:18;21.50;;;15.43;;
16015;SDS011;8112;53.592;10.184;2023-04-29T03:17:20;21.23;;;15.90;;
16015;SDS011;8112;53.592;10.184;2023-04-29T03:22:21;19.90;;;15.50;;
16015;SDS011;8112;53.592;10.184;2023-04-29T03:27:25;21.63;;;16.80;;
16015;SDS011;8112;53.592;10.184;2023-04-29T03:32:27;18.50;;;15.17;;
16015;SDS011;8112;53.592;10.184;2023-04-29T03:37:28;21.97;;;16.17;;
16015;SDS011;8112;53.592;10.184;2023-04-29T03:42:44;19.20;;;15.10;;
16015;SDS011;8112;53.592;10.184;2023-04-29T03:47:46;22.20;;;16.03;;
16015;SDS011;8112;53.592;10.184;2023-04-29T03:52:48;22.20;;;16.47;;
16015;SDS011;8112;53.592;10.184;2023-04-29T03:57:53;18.80;;;14.80;;
16015;SDS011;8112;53.592;10.184;2023-04-29T04:02:55;20.17;;;15.43;;
16015;SDS011;8112;53.592;10.184;2023-04-29T04:07:58;21.87;;;15.60;;
16015;SDS011;8112;53.592;10.184;2023-04-29T04:13:08;22.03;;;15.30;;
16015;SDS011;8112;53.592;10.184;2023-04-29T04:18:13;19.47;;;14.43;;
16015;SDS011;8112;53.592;10.184;2023-04-29T04:23:16;21.00;;;15.63;;
16015;SDS011;8112;53.592;10.184;2023-04-29T04:28:20;18.70;;;14.43;;
16015;SDS011;8112;53.592;10.184;2023-04-29T04:33:31;22.67;;;15.17;;
16015;SDS011;8112;53.592;10.184;2023-04-29T04:38:35;19.23;;;13.83;;
16015;SDS011;8112;53.592;10.184;2023-04-29T04:43:44;21.90;;;14.17;;
16015;SDS011;8112;53.592;10.184;2023-04-29T04:49:05;17.80;;;14.20;;
16015;SDS011;8112;53.592;10.184;2023-04-29T04:54:13;19.90;;;14.97;;
16015;SDS011;8112;53.592;10.184;2023-04-29T04:59:17;19.43;;;15.57;;
16015;SDS011;8112;53.592;10.184;2023-04-29T05:04:36;19.50;;;14.73;;
16015;SDS011;8112;53.592;10.184;2023-04-29T05:09:38;21.20;;;14.60;;
16015;SDS011;8112;53.592;10.184;2023-04-29T05:14:42;17.73;;;13.07;;
16015;SDS011;8112;53.592;10.184;2023-04-29T05:19:44;19.37;;;13.80;;
16015;SDS011;8112;53.592;10.184;2023-04-29T05:24:49;14.50;;;12.47;;
16015;SDS011;8112;53.592;10.184;2023-04-29T05:29:56;18.47;;;12.73;;
16015;SDS011;8112;53.592;10.184;2023-04-29T05:34:58;15.10;;;12.10;;
16015;SDS011;8112;53.592;10.184;2023-04-29T05:40:01;16.20;;;11.30;;
16015;SDS011;8112;53.592;10.184;2023-04-29T05:45:08;12.87;;;10.53;;
16015;SDS011;8112;53.592;10.184;2023-04-29T05:50:11;14.80;;;10.60;;
16015;SDS011;8112;53.592;10.184;2023-04-29T05:55:13;15.43;;;9.63;;
16015;SDS011;8112;53.592;10.184;2023-04-29T06:00:17;14.17;;;9.13;;
16015;SDS011;8112;53.592;10.184;2023-04-29T06:05:20;12.57;;;8.73;;
16015;SDS011;8112;53.592;10.184;2023-04-29T06:10:52;15.67;;;9.10;;
16015;SDS011;8112;53.592;10.184;2023-04-29T06:15:57;11.00;;;8.67;;
16015;SDS011;8112;53.592;10.184;2023-04-29T06:21:06;14.10;;;9.17;;
16015;SDS011;8112;53.592;10.184;2023-04-29T06:26:08;10.00;;;8.13;;
16015;SDS011;8112;53.592;10.184;2023-04-29T06:31:11;9.77;;;7.97;;
16015;SDS011;8112;53.592;10.184;2023-04-29T06:36:15;11.60;;;8.07;;
16015;SDS011;8112;53.592;10.184;2023-04-29T06:41:17;9.17;;;7.33;;
16015;SDS011;8112;53.592;10.184;2023-04-29T06:46:39;9.07;;;6.60;;
16015;SDS011;8112;53.592;10.184;2023-04-29T06:51:49;10.03;;;7.10;;
16015;SDS011;8112;53.592;10.184;2023-04-29T06:56:52;11.87;;;7.93;;
16015;SDS011;8112;53.592;10.184;2023-04-29T07:01:56;10.70;;;7.40;;
16015;SDS011;8112;53.592;10.184;2023-04-29T07:06:58;8.73;;;7.50;;
16015;SDS011;8112;53.592;10.184;2023-04-29T07:12:01;10.40;;;7.87;;
16015;SDS011;8112;53.592;10.184;2023-04-29T07:17:05;12.50;;;6.67;;
16015;SDS011;8112;53.592;10.184;2023-04-29T07:22:07;8.03;;;6.70;;
16015;SDS011;8112;53.592;10.184;2023-04-29T07:27:09;8.60;;;6.07;;
16015;SDS011;8112;53.592;10.184;2023-04-29T07:32:12;11.07;;;7.00;;
16015;SDS011;8112;53.592;10.184;2023-04-29T07:37:15;9.10;;;6.23;;
16015;SDS011;8112;53.592;10.184;2023-04-29T07:42:17;10.67;;;6.23;;
16015;SDS011;8112;53.592;10.184;2023-04-29T07:47:21;10.20;;;6.23;;
16015;SDS011;8112;53.592;10.184;2023-04-29T07:52:23;11.33;;;7.67;;
16015;SDS011;8112;53.592;10.184;2023-04-29T07:57:25;9.37;;;6.87;;
16015;SDS011;8112;53.592;10.184;2023-04-29T08:02:29;8.50;;;6.37;;
16015;SDS011;8112;53.592;10.184;2023-04-29T08:07:32;8.03;;;6.03;;
16015;SDS011;8112;53.592;10.184;2023-04-29T08:12:34;7.50;;;5.80;;
16015;SDS011;8112;53.592;10.184;2023-04-29T08:17:38;7.03;;;6.10;;
16015;SDS011;8112;53.592;10.184;2023-04-29T08:22:40;10.70;;;6.20;;
16015;SDS011;8112;53.592;10.184;2023-04-29T08:27:41;10.90;;;6.73;;
16015;SDS011;8112;53.592;10.184;2023-04-29T08:32:46;10.97;;;6.07;;
16015;SDS011;8112;53.592;10.184;2023-04-29T08:37:48;9.63;;;6.17;;
16015;SDS011;8112;53.592;10.184;2023-04-29T08:42:50;8.73;;;6.57;;
16015;SDS011;8112;53.592;10.184;2023-04-29T08:47:55;8.93;;;6.07;;
16015;SDS011;8112;53.592;10.184;2023-04-29T08:52:58;11.07;;;5.40;;
16015;SDS011;8112;53.592;10.184;2023-04-29T08:58:02;10.20;;;6.37;;
16015;SDS011;8112;53.592;10.184;2023-04-29T09:03:09;8.07;;;5.50;;
16015;SDS011;8112;53.592;10.184;2023-04-29T09:08:16;9.70;;;5.93;;
16015;SDS011;8112;53.592;10.184;2023-04-29T09:13:24;9.50;;;5.77;;
16015;SDS011;8112;53.592;10.184;2023-04-29T09:18:42;7.47;;;5.13;;
16015;SDS011;8112;53.592;10.184;2023-04-29T09:23:44;7.33;;;5.70;;
16015;SDS011;8112;53.592;10.184;2023-04-29T09:28:47;8.63;;;5.40;;
16015;SDS011;8112;53.592;10.184;2023-04-29T09:34:10;6.73;;;4.80;;
16015;SDS011;8112;53.592;10.184;2023-04-29T09:39:13;8.33;;;6.03;;
16015;SDS011;8112;53.592;10.184;2023-04-29T09:44:17;11.47;;;6.97;;
16015;SDS011;8112;53.592;10.184;2023-04-29T09:49:22;6.57;;;5.23;;
16015;SDS011;8112;53.592;10.184;2023-04-29T09:54:26;13.23;;;6.23;;
16015;SDS011;8112;53.592;10.184;2023-04-29T09:59:29;11.83;;;6.23;;
16015;SDS011;8112;53.592;10.184;2023-04-29T10:04:33;7.63;;;6.00;;
16015;SDS011;8112;53.592;10.184;2023-04-29T10:09:39;8.67;;;6.07;;
16015;SDS011;8112;53.592;10.184;2023-04-29T10:14:42;7.87;;;6.27;;
16015;SDS011;8112;53.592;10.184;2023-04-29T10:19:51;7.30;;;5.97;;
16015;SDS011;8112;53.592;10.184;2023-04-29T10:24:58;9.03;;;5.60;;
16015;SDS011;8112;53.592;10.184;2023-04-29T10:30:02;6.97;;;5.03;;
16015;SDS011;8112;53.592;10.184;2023-04-29T10:35:10;8.07;;;5.80;;
16015;SDS011;8112;53.592;10.184;2023-04-29T10:40:14;7.63;;;5.00;;
16015;SDS011;8112;53.592;10.184;2023-04-29T10:45:21;7.47;;;4.50;;
16015;SDS011;8112;53.592;10.184;2023-04-29T10:50:28;6.07;;;4.13;;
16015;SDS011;8112;53.592;10.184;2023-04-29T10:55:31;6.07;;;4.37;;
16015;SDS011;8112;53.592;10.184;2023-04-29T11:00:36;5.40;;;4.73;;
16015;SDS011;8112;53.592;10.184;2023-04-29T11:05:40;9.23;;;5.07;;
16015;SDS011;8112;53.592;10.184;2023-04-29T11:10:43;8.00;;;4.70;;
16015;SDS011;8112;53.592;10.184;2023-04-29T11:15:47;8.10;;;4.97;;
16015;SDS011;8112;53.592;10.184;2023-04-29T11:26:14;6.73;;;4.67;;
16015;SDS011;8112;53.592;10.184;2023-04-29T11:31:20;7.83;;;5.23;;
16015;SDS011;8112;53.592;10.184;2023-04-29T11:36:29;5.67;;;4.93;;
16015;SDS011;8112;53.592;10.184;2023-04-29T11:41:32;8.43;;;5.97;;
16015;SDS011;8112;53.592;10.184;2023-04-29T11:46:34;8.97;;;6.27;;
16015;SDS011;8112;53.592;10.184;2023-04-29T11:51:39;5.53;;;4.47;;
16015;SDS011;8112;53.592;10.184;2023-04-29T11:56:42;7.77;;;4.93;;
16015;SDS011;8112;53.592;10.184;2023-04-29T12:01:44;10.60;;;5.37;;
16015;SDS011;8112;53.592;10.184;2023-04-29T12:06:50;8.23;;;5.00;;
16015;SDS011;8112;53.592;10.184;2023-04-29T12:11:52;6.97;;;5.10;;
16015;SDS011;8112;53.592;10.184;2023-04-29T12:16:54;6.07;;;5.20;;
16015;SDS011;8112;53.592;10.184;2023-04-29T12:21:59;7.07;;;5.50;;
16015;SDS011;8112;53.592;10.184;2023-04-29T12:27:03;5.30;;;3.67;;
16015;SDS011;8112;53.592;10.184;2023-04-29T12:32:11;9.90;;;4.70;;
16015;SDS011;8112;53.592;10.184;2023-04-29T12:37:21;6.53;;;4.50;;
16015;SDS011;8112;53.592;10.184;2023-04-29T12:42:30;8.23;;;4.37;;
16015;SDS011;8112;53.592;10.184;2023-04-29T12:47:33;9.10;;;4.20;;
16015;SDS011;8112;53.592;10.184;2023-04-29T12:52:37;5.40;;;3.77;;
16015;SDS011;8112;53.592;10.184;2023-04-29T12:57:40;6.43;;;3.57;;
16015;SDS011;8112;53.592;10.184;2023-04-29T13:02:42;4.30;;;3.63;;
16015;SDS011;8112;53.592;10.184;2023-04-29T13:07:45;4.77;;;3.37;;
16015;SDS011;8112;53.592;10.184;2023-04-29T13:12:48;5.03;;;3.30;;
16015;SDS011;8112;53.592;10.184;2023-04-29T13:17:51;5.97;;;3.30;;
16015;SDS011;8112;53.592;10.184;2023-04-29T13:22:56;8.67;;;3.47;;
16015;SDS011;8112;53.592;10.184;2023-04-29T13:27:58;6.40;;;3.97;;
16015;SDS011;8112;53.592;10.184;2023-04-29T13:33:00;6.40;;;4.40;;
16015;SDS011;8112;53.592;10.184;2023-04-29T13:38:05;5.70;;;4.00;;
16015;SDS011;8112;53.592;10.184;2023-04-29T13:43:07;6.17;;;3.90;;
16015;SDS011;8112;53.592;10.184;2023-04-29T13:48:09;6.80;;;3.63;;
16015;SDS011;8112;53.592;10.184;2023-04-29T13:53:12;5.63;;;3.37;;
16015;SDS011;8112;53.592;10.184;2023-04-29T13:58:17;6.17;;;3.67;;
16015;SDS011;8112;53.592;10.184;2023-04-29T14:03:19;4.83;;;2.63;;
16015;SDS011;8112;53.592;10.184;2023-04-29T14:08:22;5.93;;;2.77;;
16015;SDS011;8112;53.592;10.184;2023-04-29T14:13:24;4.80;;;2.10;;
16015;SDS011;8112;53.592;10.184;2023-04-29T14:18:26;5.67;;;2.40;;
16015;SDS011;8112;53.592;10.184;2023-04-29T14:23:31;3.33;;;2.17;;
16015;SDS011;8112;53.592;10.184;2023-04-29T14:28:34;2.53;;;1.67;;
16015;SDS011;8112;53.592;10.184;2023-04-29T14:33:36;2.97;;;2.03;;
16015;SDS011;8112;53.592;10.184;2023-04-29T14:38:40;3.63;;;2.30;;
16015;SDS011;8112;53.592;10.184;2023-04-29T14:43:42;4.37;;;2.27;;
16015;SDS011;8112;53.592;10.184;2023-04-29T14:48:44;3.83;;;2.10;;
16015;SDS011;8112;53.592;10.184;2023-04-29T14:53:47;3.90;;;2.23;;
16015;SDS011;8112;53.592;10.184;2023-04-29T14:58:50;2.40;;;1.57;;
16015;SDS011;8112;53.592;10.184;2023-04-29T15:03:52;4.40;;;1.57;;
16015;SDS011;8112;53.592;10.184;2023-04-29T15:08:56;2.73;;;1.70;;
16015;SDS011;8112;53.592;10.184;2023-04-29T15:13:57;2.97;;;1.60;;
16015;SDS011;8112;53.592;10.184;2023-04-29T15:18:59;3.97;;;1.70;;
16015;SDS011;8112;53.592;10.184;2023-04-29T15:24:03;3.00;;;1.43;;
16015;SDS011;8112;53.592;10.184;2023-04-29T15:29:07;4.47;;;2.00;;
16015;SDS011;8112;53.592;10.184;2023-04-29T15:34:10;3.27;;;2.00;;
16015;SDS011;8112;53.592;10.184;2023-04-29T15:39:14;3.10;;;1.57;;
16015;SDS011;8112;53.592;10.184;2023-04-29T15:44:16;3.00;;;1.80;;
16015;SDS011;8112;53.592;10.184;2023-04-29T15:49:18;3.00;;;1.93;;
16015;SDS011;8112;53.592;10.184;2023-04-29T15:54:22;2.40;;;1.87;;
16015;SDS011;8112;53.592;10.184;2023-04-29T15:59:24;3.47;;;1.87;;
16015;SDS011;8112;53.592;10.184;2023-04-29T16:04:26;1.93;;;1.63;;
16015;SDS011;8112;53.592;10.184;2023-04-29T16:09:32;3.30;;;2.20;;
16015;SDS011;8112;53.592;10.184;2023-04-29T16:14:34;2.10;;;1.70;;
16015;SDS011;8112;53.592;10.184;2023-04-29T16:19:35;2.17;;;1.37;;
16015;SDS011;8112;53.592;10.184;2023-04-29T16:24:41;2.37;;;1.50;;
16015;SDS011;8112;53.592;10.184;2023-04-29T16:29:42;2.97;;;1.60;;
16015;SDS011;8112;53.592;10.184;2023-04-29T16:34:44;5.03;;;1.60;;
16015;SDS011;8112;53.592;10.184;2023-04-29T16:39:48;3.43;;;1.90;;
16015;SDS011;8112;53.592;10.184;2023-04-29T16:44:49;3.37;;;2.30;;
16015;SDS011;8112;53.592;10.184;2023-04-29T16:49:52;4.97;;;2.17;;
16015;SDS011;8112;53.592;10.184;2023-04-29T16:54:56;5.93;;;2.67;;
16015;SDS011;8112;53.592;10.184;2023-04-29T17:00:00;6.13;;;2.23;;
16015;SDS011;8112;53.592;10.184;2023-04-29T17:05:03;3.33;;;2.23;;
16015;SDS011;8112;53.592;10.184;2023-04-29T17:10:10;4.00;;;2.30;;
16015;SDS011;8112;53.592;10.184;2023-04-29T17:15:12;7.60;;;2.57;;
16015;SDS011;8112;53.592;10.184;2023-04-29T17:20:14;4.60;;;2.50;;
16015;SDS011;8112;53.592;10.184;2023-04-29T17:25:18;9.70;;;2.70;;
16015;SDS011;8112;53.592;10.184;2023-04-29T17:30:21;8.03;;;2.87;;
16015;SDS011;8112;53.592;10.184;2023-04-29T17:35:23;6.10;;;2.93;;
16015;SDS011;8112;53.592;10.184;2023-04-29T17:40:27;3.83;;;2.10;;
16015;SDS011;8112;53.592;10.184;2023-04-29T17:45:30;6.50;;;2.30;;
16015;SDS011;8112;53.592;10.184;2023-04-29T17:50:33;5.37;;;2.23;;
16015;SDS011;8112;53.592;10.184;2023-04-29T17:55:38;5.13;;;2.13;;
16015;SDS011;8112;53.592;10.184;2023-04-29T18:00:40;4.10;;;2.67;;
16015;SDS011;8112;53.592;10.184;2023-04-29T18:05:42;5.67;;;2.40;;
16015;SDS011;8112;53.592;10.184;2023-04-29T18:10:47;7.13;;;2.53;;
16015;SDS011;8112;53.592;10.184;2023-04-29T18:15:49;5.20;;;2.20;;
16015;SDS011;8112;53.592;10.184;2023-04-29T18:20:50;6.97;;;2.80;;
16015;SDS011;8112;53.592;10.184;2023-04-29T18:25:54;7.63;;;2.50;;
16015;SDS011;8112;53.592;10.184;2023-04-29T18:30:56;7.40;;;2.43;;
16015;SDS011;8112;53.592;10.184;2023-04-29T18:35:58;5.30;;;2.13;;
16015;SDS011;8112;53.592;10.184;2023-04-29T18:41:02;6.70;;;2.10;;
16015;SDS011;8112;53.592;10.184;2023-04-29T18:46:05;6.17;;;2.73;;
16015;SDS011;8112;53.592;10.184;2023-04-29T18:51:07;7.47;;;2.53;;
16015;SDS011;8112;53.592;10.184;2023-04-29T18:56:10;8.33;;;2.70;;
16015;SDS011;8112;53.592;10.184;2023-04-29T19:01:12;5.40;;;2.70;;
16015;SDS011;8112;53.592;10.184;2023-04-29T19:06:14;6.37;;;2.43;;
16015;SDS011;8112;53.592;10.184;2023-04-29T19:11:18;5.57;;;2.00;;
16015;SDS011;8112;53.592;10.184;2023-04-29T19:16:21;5.70;;;2.30;;
16015;SDS011;8112;53.592;10.184;2023-04-29T19:21:24;6.23;;;2.60;;
16015;SDS011;8112;53.592;10.184;2023-04-29T19:26:27;3.80;;;2.23;;
16015;SDS011;8112;53.592;10.184;2023-04-29T19:31:30;7.70;;;3.10;;
16015;SDS011;8112;53.592;10.184;2023-04-29T19:36:32;8.10;;;3.10;;
16015;SDS011;8112;53.592;10.184;2023-04-29T19:41:36;5.97;;;3.27;;
16015;SDS011;8112;53.592;10.184;2023-04-29T19:46:40;6.53;;;3.10;;
16015;SDS011;8112;53.592;10.184;2023-04-29T19:51:42;5.17;;;3.23;;
16015;SDS011;8112;53.592;10.184;2023-04-29T19:56:46;9.97;;;3.17;;
16015;SDS011;8112;53.592;10.184;2023-04-29T20:01:47;5.50;;;2.77;;
16015;SDS011;8112;53.592;10.184;2023-04-29T20:06:50;6.43;;;3.13;;
16015;SDS011;8112;53.592;10.184;2023-04-29T20:11:53;6.30;;;2.60;;
16015;SDS011;8112;53.592;10.184;2023-04-29T20:16:55;4.13;;;2.83;;
16015;SDS011;8112;53.592;10.184;2023-04-29T20:21:57;8.67;;;2.63;;
16015;SDS011;8112;53.592;10.184;2023-04-29T20:27:00;5.37;;;2.80;;
16015;SDS011;8112;53.592;10.184;2023-04-29T20:32:03;5.80;;;2.43;;
16015;SDS011;8112;53.592;10.184;2023-04-29T20:37:05;5.67;;;2.80;;
16015;SDS011;8112;53.592;10.184;2023-04-29T20:42:10;8.47;;;2.80;;
16015;SDS011;8112;53.592;10.184;2023-04-29T20:47:12;7.70;;;2.77;;
16015;SDS011;8112;53.592;10.184;2023-04-29T20:52:15;5.13;;;2.83;;
16015;SDS011;8112;53.592;10.184;2023-04-29T20:57:18;7.60;;;2.57;;
16015;SDS011;8112;53.592;10.184;2023-04-29T21:02:20;6.33;;;3.27;;
16015;SDS011;8112;53.592;10.184;2023-04-29T21:07:22;7.83;;;2.63;;
16015;SDS011;8112;53.592;10.184;2023-04-29T21:12:25;5.07;;;2.47;;
16015;SDS011;8112;53.592;10.184;2023-04-29T21:17:29;9.13;;;2.80;;
16015;SDS011;8112;53.592;10.184;2023-04-29T21:22:31;5.40;;;3.57;;
16015;SDS011;8112;53.592;10.184;2023-04-29T21:27:36;8.40;;;2.57;;
16015;SDS011;8112;53.592;10.184;2023-04-29T21:32:38;6.30;;;2.97;;
16015;SDS011;8112;53.592;10.184;2023-04-29T21:37:40;7.13;;;3.43;;
16015;SDS011;8112;53.592;10.184;2023-04-29T21:42:43;6.17;;;3.07;;
16015;SDS011;8112;53.592;10.184;2023-04-29T21:47:46;6.80;;;3.30;;
16015;SDS011;8112;53.592;10.184;2023-04-29T21:52:48;9.50;;;3.27;;
16015;SDS011;8112;53.592;10.184;2023-04-29T21:57:51;9.03;;;3.47;;
16015;SDS011;8112;53.592;10.184;2023-04-29T22:02:54;7.77;;;3.33;;
16015;SDS011;8112;53.592;10.184;2023-04-29T22:07:57;5.57;;;3.07;;
16015;SDS011;8112;53.592;10.184;2023-04-29T22:13:02;5.47;;;3.50;;
16015;SDS011;8112;53.592;10.184;2023-04-29T22:18:08;8.83;;;3.47;;
16015;SDS011;8112;53.592;10.184;2023-04-29T22:23:11;9.10;;;3.50;;
16015;SDS011;8112;53.592;10.184;2023-04-29T22:28:15;6.67;;;3.13;;
16015;SDS011;8112;53.592;10.184;2023-04-29T22:33:18;7.87;;;3.43;;
16015;SDS011;8112;53.592;10.184;2023-04-29T22:38:22;5.63;;;3.30;;
16015;SDS011;8112;53.592;10.184;2023-04-29T22:43:26;6.43;;;3.30;;
16015;SDS011;8112;53.592;10.184;2023-04-29T22:48:28;8.37;;;3.50;;
16015;SDS011;8112;53.592;10.184;2023-04-29T22:53:32;7.37;;;4.10;;
16015;SDS011;8112;53.592;10.184;2023-04-29T22:58:36;7.63;;;3.53;;
16015;SDS011;8112;53.592;10.184;2023-04-29T23:03:38;10.77;;;5.00;;
16015;SDS011;8112;53.592;10.184;2023-04-29T23:08:40;12.20;;;4.10;;
16015;SDS011;8112;53.592;10.184;2023-04-29T23:13:46;9.87;;;4.30;;
16015;SDS011;8112;53.592;10.184;2023-04-29T23:18:51;6.73;;;3.83;;
16015;SDS011;8112;53.592;10.184;2023-04-29T23:23:54;10.50;;;3.93;;
16015;SDS011;8112;53.592;10.184;2023-04-29T23:28:57;8.53;;;3.57;;
16015;SDS011;8112;53.592;10.184;2023-04-29T23:33:59;8.13;;;4.13;;
16015;SDS011;8112;53.592;10.184;2023-04-29T23:39:02;5.83;;;3.23;;
16015;SDS011;8112;53.592;10.184;2023-04-29T23:44:06;5.93;;;3.90;;
16015;SDS011;8112;53.592;10.184;2023-04-29T23:49:08;8.70;;;4.30;;
16015;SDS011;8112;53.592;10.184;2023-04-29T23:54:11;6.23;;;3.50;;
16015;SDS011;8112;53.592;10.184;2023-04-29T23:59:15;6.47;;;4.00;;
